sensor_id;sensor_type;location;lat;lon;timestamp;temperature;humidity
15111;DHT22;7656;51.954;7.998;2023-04-03T00:01:11;4.90;99.90
15111;DHT22;7656;51.954;7.998;2023-04-03T00:05:32;4.90;99.90
15111;DHT22;7656;51.954;7.998;2023-04-03T00:09:53;4.80;99.90
15111;DHT22;7656;51.954;7.998;2023-04-03T00:14:14;4.80;99.90
15111;DHT22;7656;51.954;7.998;2023-04-03T00:18:36;4.80;99.90
15111;DHT22;7656;51.954;7.998;2023-04-03T00:22:58;4.70;99.90
15111;DHT22;7656;51.954;7.998;2023-04-03T00:27:19;4.70;99.90
15111;DHT22;7656;51.954;7.998;2023-04-03T00:31:41;4.70;99.90
15111;DHT22;7656;51.954;7.998;2023-04-03T00:36:07;4.70;99.90
15111;DHT22;7656;51.954;7.998;2023-04-03T00:40:37;4.60;99.90
15111;DHT22;7656;51.954;7.998;2023-04-03T00:49:21;4.20;99.90
15111;DHT22;7656;51.954;7.998;2023-04-03T00:53:58;4.20;99.90
15111;DHT22;7656;51.954;7.998;2023-04-03T00:58:23;4.20;99.90
15111;DHT22;7656;51.954;7.998;2023-04-03T01:02:50;4.10;99.90
15111;DHT22;7656;51.954;7.998;2023-04-03T01:07:16;4.10;99.90
15111;DHT22;7656;51.954;7.998;2023-04-03T01:11:38;4.20;99.90
15111;DHT22;7656;51.954;7.998;2023-04-03T01:16:04;4.10;99.90
15111;DHT22;7656;51.954;7.998;2023-04-03T01:24:59;4.00;99.90
15111;DHT22;7656;51.954;7.998;2023-04-03T01:29:21;4.00;99.90
15111;DHT22;7656;51.954;7.998;2023-04-03T01:33:43;3.90;99.90
15111;DHT22;7656;51.954;7.998;2023-04-03T01:38:04;3.80;99.90
15111;DHT22;7656;51.954;7.998;2023-04-03T01:42:26;3.70;99.90
15111;DHT22;7656;51.954;7.998;2023-04-03T01:46:47;3.60;99.90
15111;DHT22;7656;51.954;7.998;2023-04-03T01:51:08;3.60;99.90
15111;DHT22;7656;51.954;7.998;2023-04-03T01:55:30;3.60;99.90
15111;DHT22;7656;51.954;7.998;2023-04-03T01:59:51;3.60;99.90
15111;DHT22;7656;51.954;7.998;2023-04-03T02:04:13;3.50;99.90
15111;DHT22;7656;51.954;7.998;2023-04-03T02:08:34;3.50;99.90
15111;DHT22;7656;51.954;7.998;2023-04-03T02:12:55;3.40;99.90
15111;DHT22;7656;51.954;7.998;2023-04-03T02:17:16;3.40;99.90
15111;DHT22;7656;51.954;7.998;2023-04-03T02:21:37;3.40;99.90
15111;DHT22;7656;51.954;7.998;2023-04-03T02:26:07;3.30;99.90
15111;DHT22;7656;51.954;7.998;2023-04-03T02:30:30;3.30;99.90
15111;DHT22;7656;51.954;7.998;2023-04-03T02:34:51;3.40;99.90
15111;DHT22;7656;51.954;7.998;2023-04-03T02:39:12;3.20;99.90
15111;DHT22;7656;51.954;7.998;2023-04-03T02:43:34;3.10;99.90
15111;DHT22;7656;51.954;7.998;2023-04-03T02:47:55;3.00;99.90
15111;DHT22;7656;51.954;7.998;2023-04-03T02:52:16;3.00;99.90
15111;DHT22;7656;51.954;7.998;2023-04-03T02:56:37;2.80;99.90
15111;DHT22;7656;51.954;7.998;2023-04-03T03:00:59;2.70;99.90
15111;DHT22;7656;51.954;7.998;2023-04-03T03:05:20;2.70;99.90
15111;DHT22;7656;51.954;7.998;2023-04-03T03:09:42;2.70;99.90
15111;DHT22;7656;51.954;7.998;2023-04-03T03:14:03;2.60;99.90
15111;DHT22;7656;51.954;7.998;2023-04-03T03:18:24;2.70;99.90
15111;DHT22;7656;51.954;7.998;2023-04-03T03:22:45;2.80;99.90
15111;DHT22;7656;51.954;7.998;2023-04-03T03:27:06;2.70;99.90
15111;DHT22;7656;51.954;7.998;2023-04-03T03:31:27;2.60;99.90
15111;DHT22;7656;51.954;7.998;2023-04-03T03:35:49;2.50;99.90
15111;DHT22;7656;51.954;7.998;2023-04-03T03:40:10;2.40;99.90
15111;DHT22;7656;51.954;7.998;2023-04-03T03:44:33;2.40;99.90
15111;DHT22;7656;51.954;7.998;2023-04-03T03:48:54;2.30;99.90
15111;DHT22;7656;51.954;7.998;2023-04-03T03:53:16;2.20;99.90
15111;DHT22;7656;51.954;7.998;2023-04-03T03:57:38;2.10;99.90
15111;DHT22;7656;51.954;7.998;2023-04-03T04:02:00;1.90;99.90
15111;DHT22;7656;51.954;7.998;2023-04-03T04:06:21;1.90;99.90
15111;DHT22;7656;51.954;7.998;2023-04-03T04:10:43;1.90;99.90
15111;DHT22;7656;51.954;7.998;2023-04-03T04:15:07;2.00;99.90
15111;DHT22;7656;51.954;7.998;2023-04-03T04:19:29;2.00;99.90
15111;DHT22;7656;51.954;7.998;2023-04-03T04:23:50;1.90;99.90
15111;DHT22;7656;51.954;7.998;2023-04-03T04:28:11;1.80;99.90
15111;DHT22;7656;51.954;7.998;2023-04-03T04:32:33;1.80;99.90
15111;DHT22;7656;51.954;7.998;2023-04-03T04:36:54;1.80;99.90
15111;DHT22;7656;51.954;7.998;2023-04-03T04:41:16;1.70;99.90
15111;DHT22;7656;51.954;7.998;2023-04-03T04:45:39;1.60;99.90
15111;DHT22;7656;51.954;7.998;2023-04-03T04:50:00;1.60;99.90
15111;DHT22;7656;51.954;7.998;2023-04-03T04:54:21;1.50;99.90
15111;DHT22;7656;51.954;7.998;2023-04-03T04:58:44;1.40;99.90
15111;DHT22;7656;51.954;7.998;2023-04-03T05:03:08;1.50;99.90
15111;DHT22;7656;51.954;7.998;2023-04-03T05:07:32;1.40;99.90
15111;DHT22;7656;51.954;7.998;2023-04-03T05:11:55;1.40;99.90
15111;DHT22;7656;51.954;7.998;2023-04-03T05:16:20;1.40;99.90
15111;DHT22;7656;51.954;7.998;2023-04-03T05:20:41;1.50;99.90
15111;DHT22;7656;51.954;7.998;2023-04-03T05:25:05;1.40;99.90
15111;DHT22;7656;51.954;7.998;2023-04-03T05:29:26;1.40;99.90
15111;DHT22;7656;51.954;7.998;2023-04-03T05:33:48;1.50;99.90
15111;DHT22;7656;51.954;7.998;2023-04-03T05:38:12;1.50;99.90
15111;DHT22;7656;51.954;7.998;2023-04-03T05:42:33;1.60;99.90
15111;DHT22;7656;51.954;7.998;2023-04-03T05:46:55;1.90;99.90
15111;DHT22;7656;51.954;7.998;2023-04-03T05:51:21;4.10;99.90
15111;DHT22;7656;51.954;7.998;2023-04-03T05:55:48;7.00;99.90
15111;DHT22;7656;51.954;7.998;2023-04-03T06:00:13;10.20;99.90
15111;DHT22;7656;51.954;7.998;2023-04-03T06:04:40;12.00;99.90
15111;DHT22;7656;51.954;7.998;2023-04-03T06:09:01;11.00;99.90
15111;DHT22;7656;51.954;7.998;2023-04-03T06:13:23;10.10;99.90
15111;DHT22;7656;51.954;7.998;2023-04-03T06:17:45;9.40;99.90
15111;DHT22;7656;51.954;7.998;2023-04-03T06:22:07;9.10;99.90
15111;DHT22;7656;51.954;7.998;2023-04-03T06:26:28;9.20;99.90
15111;DHT22;7656;51.954;7.998;2023-04-03T06:30:49;8.10;99.90
15111;DHT22;7656;51.954;7.998;2023-04-03T06:35:10;8.50;99.90
15111;DHT22;7656;51.954;7.998;2023-04-03T06:39:32;10.30;99.90
